Time;durP1;ratioP1;P1;durP2;ratioP2;P2;SDS_P1;SDS_P2;PMS_P1;PMS_P2;Temp;Humidity;BMP_temperature;BMP_pressure;BME280_temperature;BME280_humidity;BME280_pressure;Samples;Min_cycle;Max_cycle;Signal;HPM_P1;HPM_P2
2021/10/05 00:01:51;;;;;;;0.20;0.10;;;14.60;99.90;;;;;;20816227;28;20229;-67
2021/10/05 00:11:55;;;;;;;0.20;0.00;;;14.90;99.90;;;;;;20816018;28;20563;-68
2021/10/05 00:22:00;;;;;;;0.20;0.00;;;15.00;99.90;;;;;;20815388;28;20233;-67
2021/10/05 00:32:04;;;;;;;0.20;0.00;;;14.90;99.90;;;;;;20814909;28;20691;-66
2021/10/05 00:42:09;;;;;;;0.20;0.00;;;14.80;99.90;;;;;;20814430;28;20190;-67
2021/10/05 00:52:15;;;;;;;0.87;0.47;;;14.90;99.90;;;;;;20826298;28;20261;-66
2021/10/05 01:02:20;;;;;;;0.20;0.10;;;15.00;99.90;;;;;;20830154;28;20313;-67
2021/10/05 01:12:23;;;;;;;0.30;0.20;;;15.10;99.90;;;;;;20826646;28;20230;-67
2021/10/05 01:22:28;;;;;;;2.73;0.40;;;15.10;99.90;;;;;;20827610;28;20209;-67
2021/10/05 01:32:32;;;;;;;0.20;0.00;;;15.10;99.90;;;;;;20826080;28;20652;-68
2021/10/05 01:42:37;;;;;;;0.20;0.00;;;15.00;99.90;;;;;;20825930;28;20225;-67
2021/10/05 01:52:41;;;;;;;0.20;0.00;;;14.90;99.90;;;;;;20825464;28;20222;-67
2021/10/05 02:02:46;;;;;;;0.40;0.33;;;15.00;99.90;;;;;;20824521;28;20317;-67
2021/10/05 02:12:50;;;;;;;0.20;0.10;;;15.00;99.90;;;;;;20823762;28;20699;-67
2021/10/05 02:22:56;;;;;;;0.20;0.10;;;14.80;99.90;;;;;;20823208;28;20240;-67
2021/10/05 02:32:59;;;;;;;0.20;0.03;;;14.60;99.90;;;;;;20821879;28;20718;-68
2021/10/05 02:43:04;;;;;;;0.37;0.30;;;14.40;99.90;;;;;;20821641;28;20679;-68
2021/10/05 02:53:08;;;;;;;0.20;0.10;;;14.40;99.90;;;;;;20819458;28;20250;-67
2021/10/05 03:03:13;;;;;;;0.20;0.20;;;14.40;99.90;;;;;;20820886;28;20225;-67
2021/10/05 03:13:17;;;;;;;1.30;0.50;;;14.50;99.90;;;;;;20819378;28;20222;-66
2021/10/05 03:23:22;;;;;;;0.20;0.00;;;14.60;99.90;;;;;;20819012;28;20599;-67
2021/10/05 03:33:26;;;;;;;0.20;0.10;;;14.40;99.90;;;;;;20817497;28;20226;-67
2021/10/05 03:43:31;;;;;;;0.20;0.00;;;14.40;99.90;;;;;;20799427;28;20193;-67
2021/10/05 03:53:36;;;;;;;0.20;0.00;;;14.60;99.90;;;;;;20816863;28;20582;-67
2021/10/05 04:03:41;;;;;;;0.30;0.30;;;14.70;99.90;;;;;;20836829;22;20237;-73
2021/10/05 04:13:45;;;;;;;0.20;0.10;;;14.50;99.90;;;;;;20816435;28;20237;-72
2021/10/05 04:23:50;;;;;;;0.23;0.20;;;14.30;99.90;;;;;;20823014;28;20205;-73
2021/10/05 04:33:54;;;;;;;0.20;0.00;;;14.40;99.90;;;;;;20832222;28;20283;-73
2021/10/05 04:43:59;;;;;;;0.30;0.20;;;14.60;99.90;;;;;;20856901;28;20198;-74
2021/10/05 04:54:02;;;;;;;0.20;0.10;;;14.60;99.90;;;;;;20851687;28;20601;-72
2021/10/05 05:04:09;;;;;;;0.20;0.10;;;14.50;99.90;;;;;;20829445;28;20284;-72
2021/10/05 05:14:13;;;;;;;0.50;0.50;;;14.70;99.90;;;;;;20826917;28;20226;-73
2021/10/05 05:24:18;;;;;;;0.20;0.00;;;14.80;99.90;;;;;;20827044;28;20277;-74
2021/10/05 05:34:22;;;;;;;0.20;0.07;;;15.20;99.90;;;;;;20824869;28;20222;-73
2021/10/05 05:44:27;;;;;;;0.20;0.10;;;14.90;99.90;;;;;;20826491;28;20357;-74
2021/10/05 05:54:31;;;;;;;0.20;0.00;;;14.60;99.90;;;;;;20824927;28;20214;-76
2021/10/05 06:04:37;;;;;;;0.20;0.10;;;14.30;99.90;;;;;;20823003;28;20259;-72
2021/10/05 06:14:41;;;;;;;0.20;0.00;;;13.90;99.90;;;;;;20819352;28;20708;-77
2021/10/05 06:24:49;;;;;;;0.20;0.00;;;13.80;99.90;;;;;;20806200;28;20923;-74
2021/10/05 06:34:53;;;;;;;0.20;0.10;;;13.90;99.90;;;;;;20739851;28;20230;-74
2021/10/05 06:44:58;;;;;;;0.20;0.00;;;13.90;99.90;;;;;;20739604;28;20226;-74
2021/10/05 06:55:03;;;;;;;0.97;0.67;;;13.90;99.90;;;;;;20738678;28;20532;-71
2021/10/05 07:05:09;;;;;;;0.20;0.00;;;14.30;99.90;;;;;;20760708;28;20255;-72
2021/10/05 07:15:15;;;;;;;0.20;0.00;;;14.60;99.90;;;;;;20802005;28;20687;-74
2021/10/05 07:25:21;;;;;;;0.60;0.33;;;15.00;99.90;;;;;;20795200;28;20195;-74
2021/10/05 07:35:28;;;;;;;0.20;0.00;;;15.10;99.90;;;;;;20769962;28;20697;-74
2021/10/05 07:45:53;;;;;;;0.20;0.00;;;15.50;99.90;;;;;;20808790;28;20200;-83
2021/10/05 07:56:00;;;;;;;0.20;0.03;;;15.80;99.90;;;;;;20814922;28;20317;-74
2021/10/05 08:06:25;;;;;;;0.20;0.20;;;16.30;99.90;;;;;;20813780;28;20229;-76
2021/10/05 08:16:32;;;;;;;0.20;0.00;;;16.70;99.90;;;;;;20814716;28;20209;-76
2021/10/05 08:26:43;;;;;;;0.20;0.03;;;16.80;99.90;;;;;;20782383;28;20194;-73
2021/10/05 08:36:47;;;;;;;0.20;0.10;;;17.00;99.90;;;;;;20757908;28;20242;-71
2021/10/05 08:46:53;;;;;;;0.20;0.10;;;17.50;99.90;;;;;;20733580;28;20203;-73
2021/10/05 08:56:57;;;;;;;0.20;0.03;;;17.90;99.90;;;;;;20744460;28;20229;-75
2021/10/05 09:07:14;;;;;;;0.20;0.00;;;18.20;99.90;;;;;;20811273;28;20613;-74
2021/10/05 09:17:23;;;;;;;0.20;0.07;;;18.70;99.90;;;;;;20762775;28;20577;-74
2021/10/05 09:27:29;;;;;;;0.20;0.00;;;19.30;99.90;;;;;;20744871;28;20294;-72
2021/10/05 09:37:35;;;;;;;0.20;0.10;;;19.70;99.90;;;;;;20743882;28;20621;-73
2021/10/05 09:47:42;;;;;;;0.20;0.00;;;19.80;99.90;;;;;;20757844;28;20202;-73
2021/10/05 09:57:49;;;;;;;0.20;0.10;;;20.10;99.90;;;;;;20822924;28;20232;-74
2021/10/05 10:07:56;;;;;;;0.20;0.00;;;20.30;99.90;;;;;;20821090;28;20313;-71
2021/10/05 10:18:08;;;;;;;0.20;0.00;;;20.70;99.90;;;;;;20821890;28;20255;-71
2021/10/05 10:28:15;;;;;;;0.30;0.20;;;21.00;99.90;;;;;;20821980;28;20275;-70
2021/10/05 10:38:26;;;;;;;0.20;0.00;;;20.80;99.90;;;;;;20821561;28;20702;-72
2021/10/05 10:48:34;;;;;;;0.60;0.37;;;20.40;99.90;;;;;;20819189;28;20264;-73
2021/10/05 10:58:42;;;;;;;0.20;0.10;;;22.00;99.90;;;;;;20818338;28;20668;-71
2021/10/05 11:08:56;;;;;;;0.20;0.00;;;21.80;99.90;;;;;;20818370;28;20225;-69
2021/10/05 11:19:08;;;;;;;12.05;0.25;;;21.80;99.90;;;;;;20813522;28;20190;-73
2021/10/05 11:29:24;;;;;;;0.20;0.10;;;23.30;99.90;;;;;;20762618;28;20226;-74
2021/10/05 11:39:30;;;;;;;0.20;0.00;;;23.30;99.90;;;;;;20716687;28;20247;-71
2021/10/05 11:49:36;;;;;;;0.20;0.10;;;23.50;99.90;;;;;;20765575;28;20225;-71
2021/10/05 11:59:41;;;;;;;0.20;0.10;;;24.80;99.90;;;;;;20814620;28;20577;-73
2021/10/05 12:09:49;;;;;;;0.20;0.10;;;25.30;99.90;;;;;;20816393;28;20229;-74
2021/10/05 12:19:54;;;;;;;0.73;0.55;;;26.30;99.90;;;;;;20813208;28;20268;-69
2021/10/05 12:30:05;;;;;;;0.20;0.00;;;25.90;99.90;;;;;;20808544;28;20256;-73
2021/10/05 12:40:09;;;;;;;0.25;0.25;;;26.50;99.90;;;;;;20807697;28;20651;-72
2021/10/05 12:50:20;;;;;;;0.20;0.05;;;26.60;99.90;;;;;;20827562;28;20267;-72
2021/10/05 13:00:24;;;;;;;0.20;0.00;;;27.80;99.90;;;;;;20828854;28;20221;-72
2021/10/05 13:10:29;;;;;;;0.20;0.10;;;27.10;99.90;;;;;;20828642;28;20367;-71
2021/10/05 13:20:33;;;;;;;0.20;0.10;;;25.10;99.90;;;;;;20826981;28;20204;-71
2021/10/05 13:30:39;;;;;;;0.20;0.10;;;25.20;99.90;;;;;;20826320;28;20253;-72
2021/10/05 13:40:43;;;;;;;0.35;0.20;;;25.80;99.90;;;;;;20834488;28;20198;-69
2021/10/05 13:50:49;;;;;;;0.20;0.00;;;26.50;99.90;;;;;;20849532;28;20713;-69
2021/10/05 14:00:53;;;;;;;0.20;0.17;;;26.20;99.90;;;;;;20823732;28;20618;-72
2021/10/05 14:11:00;;;;;;;0.20;0.10;;;28.00;99.90;;;;;;20823248;28;20703;-70
2021/10/05 14:21:06;;;;;;;0.20;0.00;;;29.40;99.90;;;;;;20819720;28;20244;-69
2021/10/05 14:31:11;;;;;;;1.02;0.30;;;30.20;99.90;;;;;;20818151;28;20228;-72
2021/10/05 14:41:16;;;;;;;0.20;0.00;;;29.60;99.90;;;;;;20770659;28;20199;-70
2021/10/05 14:51:22;;;;;;;0.20;0.15;;;28.90;99.90;;;;;;20756426;28;20230;-71
2021/10/05 15:01:26;;;;;;;0.20;0.05;;;27.50;99.90;;;;;;20732849;28;20254;-70
2021/10/05 15:11:32;;;;;;;0.20;0.10;;;28.00;99.90;;;;;;20731539;28;20230;-70
2021/10/05 15:21:36;;;;;;;0.52;0.40;;;28.30;99.90;;;;;;20752531;28;20194;-71
2021/10/05 15:31:41;;;;;;;0.20;0.10;;;27.80;99.90;;;;;;20739293;28;20254;-71
2021/10/05 15:41:52;;;;;;;1.00;0.63;;;26.80;99.90;;;;;;20731909;28;20527;-69
2021/10/05 15:52:04;;;;;;;0.20;0.10;;;25.80;99.90;;;;;;20781087;28;20308;-69
2021/10/05 16:02:08;;;;;;;0.45;0.10;;;26.00;99.90;;;;;;20794775;28;20256;-69
2021/10/05 16:12:14;;;;;;;2.15;0.20;;;25.20;99.90;;;;;;20810366;28;20230;-69
2021/10/05 16:22:21;;;;;;;0.20;0.10;;;24.80;99.90;;;;;;20823448;28;20278;-72
2021/10/05 16:32:27;;;;;;;0.82;0.68;;;24.40;99.90;;;;;;20827285;28;20218;-70
2021/10/05 16:42:30;;;;;;;1.25;1.25;;;24.30;99.90;;;;;;20826949;28;20256;-70
2021/10/05 16:52:36;;;;;;;4.57;1.85;;;23.80;99.90;;;;;;20825943;28;20213;-69
2021/10/05 17:02:41;;;;;;;0.22;0.20;;;23.50;99.90;;;;;;20825082;28;20228;-70
2021/10/05 17:12:47;;;;;;;1.45;0.65;;;22.90;99.90;;;;;;20825760;28;20221;-69
2021/10/05 17:22:53;;;;;;;0.20;0.17;;;22.40;99.90;;;;;;20823512;28;20194;-70
2021/10/05 17:32:59;;;;;;;0.25;0.20;;;22.40;99.90;;;;;;20757739;28;20299;-70
2021/10/05 17:43:03;;;;;;;0.30;0.23;;;21.80;99.90;;;;;;20826678;28;20197;-69
2021/10/05 17:53:09;;;;;;;3.07;0.60;;;21.10;99.90;;;;;;20823640;28;20535;-71
2021/10/05 18:03:12;;;;;;;0.30;0.13;;;20.90;99.90;;;;;;20824890;28;20258;-69
2021/10/05 18:13:18;;;;;;;0.27;0.13;;;20.80;99.90;;;;;;20821965;28;20225;-69
2021/10/05 18:23:22;;;;;;;16.23;1.00;;;20.40;99.90;;;;;;20820940;28;20552;-70
2021/10/05 18:33:27;;;;;;;0.40;0.33;;;20.20;99.90;;;;;;20820447;28;20226;-69
2021/10/05 18:43:35;;;;;;;0.30;0.20;;;20.40;99.90;;;;;;20819297;28;20198;-70
2021/10/05 18:53:40;;;;;;;0.20;0.20;;;20.40;99.90;;;;;;20784524;28;20700;-70
2021/10/05 19:03:46;;;;;;;0.20;0.10;;;20.10;99.90;;;;;;20774827;28;20237;-70
2021/10/05 19:13:52;;;;;;;0.83;0.43;;;19.90;99.90;;;;;;20785487;28;20262;-69
2021/10/05 19:23:57;;;;;;;4.10;0.27;;;19.90;99.90;;;;;;20744546;28;20644;-70
2021/10/05 19:34:04;;;;;;;4.33;1.87;;;19.80;99.90;;;;;;20817526;28;20228;-70
2021/10/05 19:44:11;;;;;;;0.20;0.10;;;19.60;99.90;;;;;;20815104;28;20670;-71
2021/10/05 19:54:34;;;;;;;0.50;0.50;;;19.70;99.90;;;;;;20812966;28;20653;-72
2021/10/05 20:04:42;;;;;;;0.63;0.63;;;19.80;99.90;;;;;;20797786;28;21020;-68
2021/10/05 20:14:53;;;;;;;0.20;0.10;;;19.90;99.90;;;;;;20733593;28;20703;-73
2021/10/05 20:36:10;;;;;;;0.30;0.27;;;20.30;99.90;;;;;;20808517;28;20224;-74
2021/10/05 20:46:19;;;;;;;0.37;0.37;;;20.40;99.90;;;;;;20829818;28;20277;-74
2021/10/05 20:56:33;;;;;;;0.30;0.30;;;20.50;99.90;;;;;;20811896;28;20280;-73
2021/10/05 21:06:42;;;;;;;0.20;0.20;;;20.90;99.90;;;;;;20818960;28;20227;-74
2021/10/05 21:17:26;;;;;;;0.20;0.10;;;20.80;99.90;;;;;;20825101;28;20374;-74
2021/10/05 21:27:31;;;;;;;0.20;0.00;;;20.80;99.90;;;;;;20825384;28;20213;-68
2021/10/05 21:37:37;;;;;;;0.20;0.20;;;20.60;99.90;;;;;;20787227;28;20219;-69
2021/10/05 21:47:41;;;;;;;0.20;0.10;;;20.50;99.90;;;;;;20786251;28;20191;-68
2021/10/05 21:57:47;;;;;;;0.20;0.10;;;20.50;99.90;;;;;;20787116;28;20253;-69
2021/10/05 22:07:51;;;;;;;0.20;0.10;;;20.40;99.90;;;;;;20761828;28;20227;-70
2021/10/05 22:17:56;;;;;;;0.20;0.00;;;20.30;99.90;;;;;;20742774;28;20250;-69
2021/10/05 22:28:00;;;;;;;0.20;0.20;;;20.20;99.90;;;;;;20786034;28;20197;-69
2021/10/05 22:38:06;;;;;;;0.20;0.00;;;20.00;99.90;;;;;;20814440;28;20225;-69
2021/10/05 22:48:12;;;;;;;0.20;0.13;;;19.90;99.90;;;;;;20789026;28;20205;-68
2021/10/05 22:58:18;;;;;;;0.20;0.00;;;19.90;99.90;;;;;;20796114;28;20227;-69
2021/10/05 23:08:22;;;;;;;0.20;0.03;;;19.80;99.90;;;;;;20750759;28;20265;-68
2021/10/05 23:18:27;;;;;;;0.20;0.10;;;19.70;99.90;;;;;;20737750;28;20751;-70
2021/10/05 23:28:33;;;;;;;0.20;0.10;;;19.60;99.90;;;;;;20786316;28;20229;-69
2021/10/05 23:38:40;;;;;;;0.20;0.00;;;19.60;99.90;;;;;;20817589;28;20222;-69
2021/10/05 23:48:48;;;;;;;0.47;0.47;;;19.50;99.90;;;;;;20818323;28;20216;-69
2021/10/05 23:58:53;;;;;;;0.20;0.00;;;19.50;99.90;;;;;;20815060;28;20769;-68
